Xekmatt — OR2473 — position and weather

sailwx.info

Track history (hours):
 
Tides and Currents Weather Stations Pressure Air Temp Water Temp Dewpoint Dewpoint Depression Visibility Wind Speed Wind Dir Waves Ship Positions

Xekmatt

Last reported at 2016-Jan-17 14:05 UTC. Time now 2016-Feb-09 20:32 UTC.
Position N 38°42' W 009°10'.
Warning: this ship's position is 23 days out of date.

Length 14 m.

Type: Sailing vessel. MMSI: 205247310.

Date/timePositionNaut miles runAvg speedWind from/ knotsBaromVisibWave heightAir tempDewpointWater temp
2016-Jan-17 14:05N 38°42' W 009°10'2 3.4
2016-Jan-17 13:31N 38°41' W 009°08'0 0.2
2016-Jan-17 12:33N 38°41' W 009°08'0 0.1
2016-Jan-17 11:33N 38°42' W 009°08'2 2.0
2016-Jan-17 10:33N 38°42' W 009°10'0 0.0
2016-Jan-16 16:17N 38°42' W 009°10'3 4.1
2016-Jan-16 15:32N 38°41' W 009°06'1 0.7
2016-Jan-16 14:31N 38°41' W 009°07'0 0.1
2016-Jan-16 13:31N 38°42' W 009°07'0 0.4
2016-Jan-16 12:32N 38°42' W 009°07'1 0.8
2016-Jan-16 11:32N 38°41' W 009°08'2 1.9
2016-Jan-16 10:32N 38°42' W 009°10'0 0.0
2016-Jan-14 18:24N 38°42' W 009°10'0 0.0
2016-Jan-14 17:33N 38°42' W 009°10'0 0.0
2016-Jan-12 19:32N 38°42' W 009°10'0 0.0
2016-Jan-12 18:33N 38°42' W 009°10'  
2016-Jan-09 16:10N 38°42' W 009°10'3 4.4
2016-Jan-09 15:32N 38°42' W 009°07'1 0.6
2016-Jan-09 14:33N 38°43' W 009°06'1 1.2
2016-Jan-09 13:33N 38°42' W 009°07'1 1.1
2016-Jan-09 12:33N 38°42' W 009°06'2 1.6
2016-Jan-09 11:33N 38°41' W 009°07'2 2.4
2016-Jan-09 10:33N 38°42' W 009°10'  
Track history (hours):
 
Tides and Currents Weather Stations Pressure Air Temp Water Temp Dewpoint Dewpoint Depression Visibility Wind Speed Wind Dir Waves Ship Positions

Xekmatt

Last reported at 2016-Jan-17 14:05 UTC. Time now 2016-Feb-09 20:32 UTC.
Position N 38°42' W 009°10'.
Warning: this ship's position is 23 days out of date.

Length 14 m.

Type: Sailing vessel. MMSI: 205247310.

Date/timePositionNaut miles runAvg speedWind from/ knotsBaromVisibWave heightAir tempDewpointWater temp
2016-Jan-17 14:05N 38°42' W 009°10'2 3.4
2016-Jan-17 13:31N 38°41' W 009°08'0 0.2
2016-Jan-17 12:33N 38°41' W 009°08'0 0.1
2016-Jan-17 11:33N 38°42' W 009°08'2 2.0
2016-Jan-17 10:33N 38°42' W 009°10'0 0.0
2016-Jan-16 16:17N 38°42' W 009°10'3 4.1
2016-Jan-16 15:32N 38°41' W 009°06'1 0.7
2016-Jan-16 14:31N 38°41' W 009°07'0 0.1
2016-Jan-16 13:31N 38°42' W 009°07'0 0.4
2016-Jan-16 12:32N 38°42' W 009°07'1 0.8
2016-Jan-16 11:32N 38°41' W 009°08'2 1.9
2016-Jan-16 10:32N 38°42' W 009°10'0 0.0
2016-Jan-14 18:24N 38°42' W 009°10'0 0.0
2016-Jan-14 17:33N 38°42' W 009°10'0 0.0
2016-Jan-12 19:32N 38°42' W 009°10'0 0.0
2016-Jan-12 18:33N 38°42' W 009°10'  
2016-Jan-09 16:10N 38°42' W 009°10'3 4.4
2016-Jan-09 15:32N 38°42' W 009°07'1 0.6
2016-Jan-09 14:33N 38°43' W 009°06'1 1.2
2016-Jan-09 13:33N 38°42' W 009°07'1 1.1
2016-Jan-09 12:33N 38°42' W 009°06'2 1.6
2016-Jan-09 11:33N 38°41' W 009°07'2 2.4
2016-Jan-09 10:33N 38°42' W 009°10'  

Dump ship's entire track history